createdAt,value
2022-09-07T00:00:08.288Z,13.30
2022-09-07T00:01:08.270Z,12.00
2022-09-07T00:02:08.244Z,12.50
2022-09-07T00:03:08.364Z,11.70
2022-09-07T00:04:08.257Z,9.90
2022-09-07T00:05:08.224Z,9.60
2022-09-07T00:06:08.226Z,12.60
2022-09-07T00:07:08.208Z,11.60
2022-09-07T00:08:08.191Z,13.50
2022-09-07T00:09:08.206Z,12.70
2022-09-07T00:10:08.188Z,14.10
2022-09-07T00:11:08.173Z,11.20
2022-09-07T00:12:08.166Z,10.80
2022-09-07T00:13:08.137Z,10.50
2022-09-07T00:14:08.131Z,11.90
2022-09-07T00:15:08.151Z,10.30
2022-09-07T00:16:08.169Z,10.40
2022-09-07T00:17:08.104Z,10.20
2022-09-07T00:18:08.094Z,9.40
2022-09-07T00:19:08.085Z,10.90
2022-09-07T00:20:08.081Z,10.80
2022-09-07T00:21:08.070Z,10.00
2022-09-07T00:22:08.054Z,8.30
2022-09-07T00:23:08.041Z,9.60
2022-09-07T00:24:08.032Z,11.10
2022-09-07T00:25:08.029Z,9.20
2022-09-07T00:26:08.006Z,10.00
2022-09-07T00:27:08.001Z,10.60
2022-09-07T00:28:07.998Z,9.80
2022-09-07T00:29:07.994Z,9.70
2022-09-07T00:30:07.986Z,10.50
2022-09-07T00:31:08.045Z,12.50
2022-09-07T00:32:07.952Z,9.70
2022-09-07T00:33:07.926Z,12.40
2022-09-07T00:34:07.964Z,10.60
2022-09-07T00:35:07.939Z,10.30
2022-09-07T00:36:07.918Z,14.40
2022-09-07T00:37:07.907Z,10.20
2022-09-07T00:38:07.891Z,14.00
2022-09-07T00:39:07.881Z,10.70
2022-09-07T00:40:07.965Z,10.40
2022-09-07T00:41:07.883Z,9.20
2022-09-07T00:42:07.854Z,10.20
2022-09-07T00:43:07.846Z,11.60
2022-09-07T00:44:07.833Z,10.30
2022-09-07T00:45:07.916Z,12.40
2022-09-07T00:46:07.860Z,11.50
2022-09-07T00:47:07.822Z,11.60
2022-09-07T00:48:07.807Z,11.20
2022-09-07T00:49:07.785Z,11.10
2022-09-07T00:50:07.806Z,8.50
2022-09-07T00:51:07.780Z,10.60
2022-09-07T00:52:07.758Z,10.30
2022-09-07T00:53:07.748Z,12.50
2022-09-07T00:54:07.741Z,10.80
2022-09-07T00:55:07.761Z,12.50
2022-09-07T00:56:07.727Z,9.70
2022-09-07T00:57:07.714Z,14.40
2022-09-07T00:58:07.722Z,12.00
2022-09-07T00:59:07.693Z,10.80
2022-09-07T01:00:07.703Z,13.10
2022-09-07T01:01:07.664Z,14.40
2022-09-07T01:02:07.715Z,12.60
2022-09-07T01:03:07.716Z,12.10
2022-09-07T01:04:07.639Z,10.30
2022-09-07T01:05:09.485Z,14.00
2022-09-07T01:06:08.625Z,13.30
2022-09-07T01:07:07.613Z,16.30
2022-09-07T01:08:07.606Z,13.70
2022-09-07T01:09:07.601Z,17.80
2022-09-07T01:10:07.608Z,16.70
2022-09-07T01:11:07.576Z,16.60
2022-09-07T01:12:07.569Z,15.90
2022-09-07T01:13:07.549Z,18.30
2022-09-07T01:14:07.544Z,18.60
2022-09-07T01:15:07.563Z,19.90
2022-09-07T01:16:07.557Z,20.00
2022-09-07T01:17:07.502Z,23.20
2022-09-07T01:18:07.503Z,17.60
2022-09-07T01:19:07.497Z,23.10
2022-09-07T01:20:07.519Z,19.90
2022-09-07T01:21:07.475Z,19.60
2022-09-07T01:22:07.484Z,21.80
2022-09-07T01:23:07.456Z,22.70
2022-09-07T01:24:07.446Z,21.20
2022-09-07T01:25:07.455Z,20.40
2022-09-07T01:26:07.426Z,13.90
2022-09-07T01:27:07.418Z,16.80
2022-09-07T01:28:07.418Z,14.90
2022-09-07T01:29:07.387Z,14.60
2022-09-07T01:30:07.406Z,15.90
2022-09-07T01:31:07.416Z,14.40
2022-09-07T01:32:07.362Z,16.90
2022-09-07T01:33:07.351Z,18.30
2022-09-07T01:34:07.347Z,18.30
2022-09-07T01:35:07.355Z,18.10
2022-09-07T01:36:07.326Z,15.60
2022-09-07T01:37:07.320Z,16.50
2022-09-07T01:38:07.309Z,15.30
2022-09-07T01:39:07.294Z,17.00
2022-09-07T01:40:07.380Z,15.80
2022-09-07T01:41:07.280Z,14.70
2022-09-07T01:42:07.265Z,17.60
2022-09-07T01:43:07.259Z,18.40
2022-09-07T01:44:07.253Z,17.50
2022-09-07T01:45:07.272Z,15.60
2022-09-07T01:46:07.325Z,14.10
2022-09-07T01:47:07.217Z,13.00
2022-09-07T01:48:07.213Z,13.30
2022-09-07T01:49:07.214Z,12.50
2022-09-07T01:50:07.212Z,12.50
2022-09-07T01:51:07.188Z,12.10
2022-09-07T01:52:07.172Z,12.30
2022-09-07T01:53:07.171Z,12.40
2022-09-07T01:54:07.154Z,12.70
2022-09-07T01:55:07.170Z,14.40
2022-09-07T01:56:07.136Z,13.10
2022-09-07T01:57:07.114Z,14.00
2022-09-07T01:58:07.112Z,11.90
2022-09-07T01:59:07.106Z,12.50
2022-09-07T02:00:07.110Z,12.60
2022-09-07T02:01:07.065Z,14.40
2022-09-07T02:02:07.115Z,11.50
2022-09-07T02:03:07.112Z,11.50
2022-09-07T02:04:07.057Z,10.50
2022-09-07T02:05:07.052Z,10.10
2022-09-07T02:06:07.060Z,9.00
2022-09-07T02:07:07.040Z,12.20
2022-09-07T02:08:07.017Z,11.50
2022-09-07T02:09:06.997Z,12.20
2022-09-07T02:10:07.014Z,10.60
2022-09-07T02:11:06.980Z,13.00
2022-09-07T02:12:06.978Z,12.80
2022-09-07T02:13:06.969Z,12.10
2022-09-07T02:14:06.961Z,11.10
2022-09-07T02:15:06.959Z,12.40
2022-09-07T02:16:07.047Z,11.60
2022-09-07T02:17:06.918Z,15.80
2022-09-07T02:18:06.927Z,11.80
2022-09-07T02:19:06.902Z,11.00
2022-09-07T02:20:06.925Z,17.40
2022-09-07T02:21:06.874Z,12.50
2022-09-07T02:22:06.875Z,14.30
2022-09-07T02:23:06.890Z,12.10
2022-09-07T02:24:06.855Z,15.70
2022-09-07T02:25:06.852Z,11.50
2022-09-07T02:26:06.832Z,10.00
2022-09-07T02:27:06.824Z,14.10
2022-09-07T02:28:06.817Z,10.90
2022-09-07T02:29:06.794Z,11.40
2022-09-07T02:30:06.787Z,10.60
2022-09-07T02:31:06.853Z,14.10
2022-09-07T02:32:06.801Z,12.50
2022-09-07T02:33:06.767Z,12.70
2022-09-07T02:34:06.751Z,10.40
2022-09-07T02:35:06.744Z,10.80
2022-09-07T02:36:06.750Z,14.10
2022-09-07T02:37:06.715Z,10.40
2022-09-07T02:38:06.711Z,14.90
2022-09-07T02:39:06.700Z,13.00
2022-09-07T02:40:06.752Z,9.80
2022-09-07T02:41:07.693Z,11.10
2022-09-07T02:42:06.682Z,10.80
2022-09-07T02:43:06.662Z,13.10
2022-09-07T02:44:06.653Z,11.00
2022-09-07T02:45:06.638Z,12.80
2022-09-07T02:46:06.707Z,14.80
2022-09-07T02:47:06.624Z,14.10
2022-09-07T02:48:06.615Z,18.40
2022-09-07T02:49:06.610Z,13.20
2022-09-07T02:50:06.588Z,13.30
2022-09-07T02:51:06.598Z,11.60
2022-09-07T02:52:06.576Z,11.70
2022-09-07T02:53:06.562Z,13.10
2022-09-07T02:54:06.549Z,13.00
2022-09-07T02:55:06.552Z,12.20
2022-09-07T02:56:06.551Z,17.40
2022-09-07T02:57:06.523Z,20.50
2022-09-07T02:58:06.497Z,30.40
2022-09-07T02:59:07.502Z,36.60
2022-09-07T03:00:06.504Z,35.30
2022-09-07T03:01:06.531Z,27.20
2022-09-07T03:02:06.530Z,23.20
2022-09-07T03:03:06.469Z,24.20
2022-09-07T03:04:06.463Z,23.70
2022-09-07T03:05:06.445Z,21.50
2022-09-07T03:06:06.461Z,18.20
2022-09-07T03:07:06.456Z,20.10
2022-09-07T03:08:06.421Z,18.30
2022-09-07T03:09:06.409Z,16.80
2022-09-07T03:10:06.409Z,16.30
2022-09-07T03:11:06.387Z,13.30
2022-09-07T03:12:06.383Z,13.70
2022-09-07T03:13:06.369Z,11.20
2022-09-07T03:14:06.359Z,11.00
2022-09-07T03:15:06.364Z,10.20
2022-09-07T03:16:06.360Z,13.40
2022-09-07T03:17:06.321Z,11.50
2022-09-07T03:18:06.309Z,10.50
2022-09-07T03:19:06.306Z,15.10
2022-09-07T03:20:06.312Z,15.70
2022-09-07T03:21:06.290Z,17.90
2022-09-07T03:22:06.281Z,19.90
2022-09-07T03:23:06.270Z,18.60
2022-09-07T03:24:06.261Z,19.00
2022-09-07T03:25:06.270Z,20.70
2022-09-07T03:26:06.244Z,20.30
2022-09-07T03:27:06.227Z,20.40
2022-09-07T03:28:06.220Z,20.00
2022-09-07T03:29:06.207Z,18.90
2022-09-07T03:30:06.213Z,18.90
2022-09-07T03:31:06.250Z,19.90
2022-09-07T03:32:06.180Z,17.10
2022-09-07T03:33:06.154Z,15.10
2022-09-07T03:34:06.151Z,14.50
2022-09-07T03:35:06.238Z,15.00
2022-09-07T03:36:06.134Z,10.50
2022-09-07T03:37:06.130Z,13.20
2022-09-07T03:38:06.119Z,10.10
2022-09-07T03:39:06.106Z,13.50
2022-09-07T03:40:06.157Z,12.60
2022-09-07T03:41:06.091Z,13.00
2022-09-07T03:42:06.075Z,10.10
2022-09-07T03:43:06.068Z,10.70
2022-09-07T03:44:06.090Z,8.70
2022-09-07T03:45:06.062Z,8.20
2022-09-07T03:46:06.100Z,9.00
2022-09-07T03:47:06.026Z,10.20
2022-09-07T03:48:06.034Z,9.00
2022-09-07T03:49:06.010Z,10.90
2022-09-07T03:50:06.016Z,9.90
2022-09-07T03:51:05.991Z,6.90
2022-09-07T03:52:05.978Z,9.50
2022-09-07T03:53:05.965Z,8.20
2022-09-07T03:54:05.955Z,8.70
2022-09-07T03:55:05.961Z,10.20
2022-09-07T03:56:05.941Z,7.60
2022-09-07T03:57:05.928Z,9.40
2022-09-07T03:58:05.911Z,8.40
2022-09-07T03:59:06.686Z,9.80
2022-09-07T04:00:05.928Z,9.90
2022-09-07T04:01:05.932Z,11.30
2022-09-07T04:02:05.911Z,9.20
2022-09-07T04:03:05.866Z,12.90
2022-09-07T04:04:05.863Z,8.80
2022-09-07T04:05:05.861Z,15.20
2022-09-07T04:06:05.836Z,9.80
2022-09-07T04:07:05.825Z,10.20
2022-09-07T04:08:05.821Z,11.20
2022-09-07T04:09:05.823Z,9.90
2022-09-07T04:10:05.808Z,8.70
2022-09-07T04:11:05.793Z,9.70
2022-09-07T04:12:05.783Z,8.20
2022-09-07T04:13:05.757Z,10.50
2022-09-07T04:14:05.759Z,8.30
2022-09-07T04:15:05.769Z,9.90
2022-09-07T04:16:05.739Z,9.30
2022-09-07T04:17:05.773Z,7.90
2022-09-07T04:18:05.715Z,8.10
2022-09-07T04:20:48.869Z,7.10
2022-09-07T04:21:48.865Z,7.80
2022-09-07T04:22:51.448Z,10.40
2022-09-07T04:23:49.851Z,9.60
2022-09-07T04:24:48.856Z,10.50
2022-09-07T04:25:48.824Z,9.90
2022-09-07T04:26:48.816Z,7.80
2022-09-07T04:27:48.800Z,11.00
2022-09-07T04:28:48.793Z,7.80
2022-09-07T04:29:48.796Z,6.50
2022-09-07T04:30:48.807Z,10.10
2022-09-07T04:31:48.759Z,7.00
2022-09-07T04:32:49.872Z,10.10
2022-09-07T04:33:49.857Z,13.60
2022-09-07T04:34:49.868Z,9.80
2022-09-07T04:35:49.836Z,8.30
2022-09-07T04:36:49.823Z,11.90
2022-09-07T04:37:49.818Z,12.70
2022-09-07T04:38:49.811Z,9.70
2022-09-07T04:39:49.885Z,9.90
2022-09-07T04:40:49.782Z,7.80
2022-09-07T04:41:49.766Z,9.50
2022-09-07T04:42:49.768Z,12.90
2022-09-07T04:43:49.759Z,9.20
2022-09-07T04:44:49.766Z,7.20
2022-09-07T04:45:49.760Z,10.10
2022-09-07T04:46:49.728Z,12.90
2022-09-07T04:47:49.713Z,6.20
2022-09-07T04:48:49.717Z,8.10
2022-09-07T04:49:49.699Z,11.20
2022-09-07T04:50:49.681Z,12.40
2022-09-07T04:51:49.666Z,11.60
2022-09-07T04:52:50.665Z,7.30
2022-09-07T04:53:49.639Z,11.10
2022-09-07T04:54:49.725Z,8.60
2022-09-07T04:55:49.633Z,7.60
2022-09-07T04:56:49.624Z,10.80
2022-09-07T04:57:49.613Z,13.20
2022-09-07T04:58:49.600Z,13.50
2022-09-07T04:59:49.618Z,13.50
2022-09-07T05:00:49.630Z,8.90
2022-09-07T05:01:49.570Z,12.20
2022-09-07T05:02:49.652Z,5.60
2022-09-07T05:03:49.546Z,8.80
2022-09-07T05:04:49.554Z,9.70
2022-09-07T05:05:49.517Z,8.20
2022-09-07T05:06:49.523Z,10.40
2022-09-07T05:07:49.514Z,15.40
2022-09-07T05:08:49.499Z,10.50
2022-09-07T05:09:49.516Z,11.60
2022-09-07T05:10:49.489Z,9.50
2022-09-07T05:11:49.476Z,8.30
2022-09-07T05:12:49.464Z,11.50
2022-09-07T05:13:49.452Z,8.80
2022-09-07T05:14:49.454Z,9.60
2022-09-07T05:15:49.452Z,10.70
2022-09-07T05:16:49.498Z,13.70
2022-09-07T05:17:49.397Z,11.30
2022-09-07T05:18:49.396Z,6.80
2022-09-07T05:19:49.411Z,10.60
2022-09-07T05:20:49.382Z,8.30
2022-09-07T05:21:49.369Z,12.20
2022-09-07T05:22:49.358Z,6.50
2022-09-07T05:23:49.364Z,8.60
2022-09-07T05:24:49.342Z,10.10
2022-09-07T05:25:49.330Z,9.90
2022-09-07T05:26:49.310Z,10.70
2022-09-07T05:27:49.310Z,11.20
2022-09-07T05:28:49.400Z,15.80
2022-09-07T05:30:05.756Z,12.40
2022-09-07T05:31:51.275Z,9.20
2022-09-07T05:32:49.247Z,10.60
2022-09-07T05:34:53.002Z,10.80
2022-09-07T05:35:50.228Z,9.90
2022-09-07T05:36:49.217Z,10.30
2022-09-07T05:37:49.213Z,11.30
2022-09-07T05:38:49.221Z,12.20
2022-09-07T05:39:49.239Z,11.50
2022-09-07T05:40:49.180Z,12.40
2022-09-07T05:41:49.182Z,12.10
2022-09-07T05:42:50.154Z,13.80
2022-09-07T05:44:51.165Z,10.90
2022-09-07T05:45:49.202Z,13.70
2022-09-07T05:46:49.114Z,9.20
2022-09-07T05:47:49.106Z,13.50
2022-09-07T05:48:49.090Z,10.60
2022-09-07T05:49:50.362Z,12.40
2022-09-07T05:50:49.148Z,11.80
2022-09-07T05:51:49.066Z,9.90
2022-09-07T05:52:49.052Z,9.10
2022-09-07T05:53:49.043Z,10.00
2022-09-07T05:54:49.037Z,8.80
2022-09-07T05:55:49.034Z,10.50
2022-09-07T05:56:49.012Z,6.40
2022-09-07T05:57:49.001Z,10.60
2022-09-07T05:58:48.986Z,10.10
2022-09-07T05:59:49.001Z,11.90
2022-09-07T06:00:48.972Z,13.40
2022-09-07T06:01:49.151Z,7.90
2022-09-07T06:02:49.036Z,11.10
2022-09-07T06:03:48.940Z,9.70
2022-09-07T06:04:48.956Z,9.90
2022-09-07T06:05:48.926Z,8.50
2022-09-07T06:07:17.566Z,9.60
2022-09-07T06:07:50.923Z,11.30
2022-09-07T06:08:48.911Z,9.40
2022-09-07T06:10:50.877Z,8.40
2022-09-07T06:11:48.865Z,9.90
2022-09-07T06:12:49.404Z,12.70
2022-09-07T06:13:48.847Z,8.40
2022-09-07T06:14:48.858Z,9.20
2022-09-07T06:15:48.829Z,10.50
2022-09-07T06:16:48.843Z,8.70
2022-09-07T06:17:48.796Z,12.60
2022-09-07T06:18:48.788Z,8.70
2022-09-07T06:19:48.803Z,9.70
2022-09-07T06:20:48.779Z,10.50
2022-09-07T06:21:48.765Z,11.20
2022-09-07T06:22:48.747Z,10.40
2022-09-07T06:23:48.745Z,10.20
2022-09-07T06:24:48.747Z,12.00
2022-09-07T06:25:48.724Z,14.70
2022-09-07T06:26:48.707Z,14.10
2022-09-07T06:27:48.702Z,13.20
2022-09-07T06:28:50.229Z,14.80
2022-09-07T06:29:49.701Z,15.10
2022-09-07T06:30:48.663Z,13.40
2022-09-07T06:32:50.657Z,13.90
2022-09-07T06:33:48.665Z,15.30
2022-09-07T06:34:48.628Z,13.30
2022-09-07T06:35:48.624Z,13.70
2022-09-07T06:36:48.613Z,13.60
2022-09-07T06:37:48.613Z,13.00
2022-09-07T06:38:48.611Z,13.20
2022-09-07T06:39:48.629Z,12.90
2022-09-07T06:40:48.800Z,16.60
2022-09-07T06:42:04.911Z,13.50
2022-09-07T06:42:50.560Z,14.60
2022-09-07T06:43:48.565Z,13.70
2022-09-07T06:44:48.547Z,11.40
2022-09-07T06:45:48.618Z,11.40
2022-09-07T06:47:04.449Z,14.00
2022-09-07T06:47:50.502Z,12.70
2022-09-07T06:48:48.509Z,12.50
2022-09-07T06:49:48.485Z,11.70
2022-09-07T06:50:48.463Z,12.50
2022-09-07T06:51:48.464Z,11.20
2022-09-07T06:53:50.642Z,9.50
2022-09-07T06:55:03.646Z,16.70
2022-09-07T06:55:50.424Z,15.50
2022-09-07T06:56:48.431Z,18.00
2022-09-07T06:57:48.411Z,20.00
2022-09-07T06:58:48.402Z,36.00
2022-09-07T06:59:48.381Z,85.30
2022-09-07T07:00:48.449Z,60.90
2022-09-07T07:01:48.364Z,61.20
2022-09-07T07:02:48.388Z,62.00
2022-09-07T07:03:48.336Z,72.10
2022-09-07T07:04:48.345Z,91.20
2022-09-07T07:05:48.323Z,85.10
2022-09-07T07:06:48.302Z,81.20
2022-09-07T07:07:48.302Z,86.60
2022-09-07T07:08:48.293Z,79.90
2022-09-07T07:09:48.291Z,78.90
2022-09-07T07:10:48.278Z,73.40
2022-09-07T07:11:48.256Z,75.60
2022-09-07T07:12:48.258Z,75.60
2022-09-07T07:13:48.244Z,69.20
2022-09-07T07:14:48.270Z,67.30
2022-09-07T07:15:48.223Z,49.40
2022-09-07T07:16:48.240Z,28.20
2022-09-07T07:17:56.095Z,23.80
2022-09-07T07:18:50.181Z,20.80
2022-09-07T07:19:48.219Z,16.40
2022-09-07T07:20:49.174Z,11.10
2022-09-07T07:22:10.719Z,11.30
2022-09-07T07:22:50.165Z,12.10
2022-09-07T07:23:48.159Z,11.30
2022-09-07T07:24:48.130Z,10.20
2022-09-07T07:25:48.114Z,10.80
2022-09-07T07:26:48.115Z,8.20
2022-09-07T07:27:48.106Z,9.90
2022-09-07T07:29:04.145Z,9.90
2022-09-07T07:29:50.075Z,7.80
2022-09-07T07:30:48.074Z,10.30
2022-09-07T07:31:48.060Z,8.90
2022-09-07T07:32:48.053Z,8.10
2022-09-07T07:33:48.241Z,10.40
2022-09-07T07:34:48.023Z,11.40
2022-09-07T07:35:49.012Z,7.40
2022-09-07T07:36:48.007Z,8.90
2022-09-07T07:37:48.013Z,7.90
2022-09-07T07:39:03.450Z,7.50
2022-09-07T07:40:21.976Z,7.10
2022-09-07T07:42:48.952Z,7.90
2022-09-07T07:43:47.961Z,8.90
2022-09-07T07:44:48.021Z,10.10
2022-09-07T07:45:55.195Z,8.40
2022-09-07T07:46:49.031Z,9.10
2022-09-07T07:47:47.896Z,9.80
2022-09-07T07:48:47.912Z,11.20
2022-09-07T07:49:48.028Z,9.20
2022-09-07T07:50:47.873Z,8.90
2022-09-07T07:52:50.394Z,10.00
2022-09-07T07:53:48.853Z,8.50
2022-09-07T07:54:47.826Z,8.60
2022-09-07T07:55:47.889Z,8.10
2022-09-07T07:56:47.813Z,9.40
2022-09-07T07:57:47.812Z,8.90
2022-09-07T07:58:47.811Z,9.20
2022-09-07T07:59:47.783Z,7.90
2022-09-07T08:00:56.077Z,9.50
2022-09-07T08:01:50.082Z,8.40
2022-09-07T08:02:47.866Z,8.60
2022-09-07T08:03:47.750Z,9.50
2022-09-07T08:04:47.751Z,10.20
2022-09-07T08:05:47.728Z,9.80
2022-09-07T08:06:47.719Z,9.40
2022-09-07T08:07:47.709Z,9.90
2022-09-07T08:08:47.702Z,11.60
2022-09-07T08:09:47.714Z,9.10
2022-09-07T08:10:47.680Z,9.80
2022-09-07T08:11:47.671Z,10.40
2022-09-07T08:12:47.661Z,12.10
2022-09-07T08:13:47.635Z,12.70
2022-09-07T08:14:47.652Z,9.70
2022-09-07T08:15:47.629Z,8.50
2022-09-07T08:16:47.685Z,13.30
2022-09-07T08:17:47.599Z,10.60
2022-09-07T08:18:47.601Z,11.30
2022-09-07T08:19:47.639Z,9.50
2022-09-07T08:20:48.366Z,7.30
2022-09-07T08:21:47.569Z,13.10
2022-09-07T08:22:47.557Z,11.30
2022-09-07T08:23:47.549Z,7.70
2022-09-07T08:24:47.552Z,8.50
2022-09-07T08:25:47.526Z,8.50
2022-09-07T08:26:47.519Z,8.30
2022-09-07T08:27:47.509Z,10.50
2022-09-07T08:28:47.531Z,7.70
2022-09-07T08:29:47.487Z,9.40
2022-09-07T08:30:47.486Z,11.20
2022-09-07T08:31:47.528Z,11.70
2022-09-07T08:32:47.469Z,9.20
2022-09-07T08:33:47.469Z,8.90
2022-09-07T08:34:47.440Z,7.80
2022-09-07T08:35:47.434Z,8.90
2022-09-07T08:36:47.415Z,10.10
2022-09-07T08:37:47.520Z,10.60
2022-09-07T08:38:47.426Z,7.70
2022-09-07T08:39:47.407Z,9.30
2022-09-07T08:40:47.393Z,7.90
2022-09-07T08:41:47.364Z,9.00
2022-09-07T08:42:47.351Z,10.50
2022-09-07T08:43:49.201Z,12.30
2022-09-07T08:44:48.337Z,8.30
2022-09-07T08:45:47.331Z,10.10
2022-09-07T08:46:47.426Z,9.30
2022-09-07T08:47:47.305Z,8.90
2022-09-07T08:48:47.318Z,10.40
2022-09-07T08:49:47.279Z,9.10
2022-09-07T08:50:47.287Z,7.00
2022-09-07T08:51:47.288Z,6.80
2022-09-07T08:52:47.256Z,11.30
2022-09-07T08:53:47.306Z,8.90
2022-09-07T08:54:47.243Z,10.50
2022-09-07T08:55:47.224Z,9.90
2022-09-07T08:57:49.207Z,9.60
2022-09-07T08:58:49.865Z,8.50
2022-09-07T08:59:48.188Z,8.40
2022-09-07T09:00:47.499Z,10.50
2022-09-07T09:02:26.917Z,12.50
2022-09-07T09:05:49.194Z,10.30
2022-09-07T09:06:47.232Z,8.50
2022-09-07T09:07:47.127Z,10.70
2022-09-07T09:08:47.120Z,9.20
2022-09-07T09:09:47.088Z,10.20
2022-09-07T09:10:47.079Z,8.30
2022-09-07T09:11:47.067Z,10.20
2022-09-07T09:12:47.057Z,8.20
2022-09-07T09:13:47.057Z,5.30
2022-09-07T09:14:47.040Z,7.40
2022-09-07T09:15:47.040Z,8.20
2022-09-07T09:16:47.020Z,8.90
2022-09-07T09:17:47.010Z,4.30
2022-09-07T09:18:47.000Z,8.70
2022-09-07T09:19:47.050Z,5.10
2022-09-07T09:20:46.984Z,8.80
2022-09-07T09:21:46.976Z,6.60
2022-09-07T09:22:46.964Z,5.10
2022-09-07T09:23:46.968Z,8.50
2022-09-07T09:24:46.942Z,5.40
2022-09-07T09:25:46.923Z,5.10
2022-09-07T09:26:46.987Z,6.40
2022-09-07T09:27:46.909Z,5.80
2022-09-07T09:28:46.897Z,7.50
2022-09-07T09:29:46.914Z,6.40
2022-09-07T09:30:46.980Z,10.00
2022-09-07T09:31:46.873Z,5.30
2022-09-07T09:32:46.858Z,6.20
2022-09-07T09:33:46.856Z,7.00
2022-09-07T09:34:46.837Z,6.60
2022-09-07T09:35:46.826Z,6.40
2022-09-07T09:36:46.823Z,5.20
2022-09-07T09:37:46.807Z,5.20
2022-09-07T09:38:46.788Z,5.40
2022-09-07T09:39:49.037Z,8.00
2022-09-07T09:40:46.774Z,6.00
2022-09-07T09:41:46.796Z,6.50
2022-09-07T09:42:46.746Z,7.60
2022-09-07T09:43:46.774Z,5.60
2022-09-07T09:44:46.742Z,4.70
2022-09-07T09:47:29.560Z,7.30
2022-09-07T09:47:47.754Z,5.10
2022-09-07T09:48:46.704Z,4.80
2022-09-07T09:49:46.788Z,8.00
2022-09-07T09:52:51.783Z,8.00
2022-09-07T09:53:47.666Z,7.70
2022-09-07T09:54:46.636Z,8.10
2022-09-07T09:55:46.613Z,8.90
2022-09-07T09:56:47.622Z,7.00
2022-09-07T09:59:04.639Z,7.20
2022-09-07T09:59:58.130Z,8.30
2022-09-07T10:03:56.736Z,7.20
2022-09-07T10:04:48.553Z,4.80
2022-09-07T10:05:46.531Z,5.10
2022-09-07T10:06:46.512Z,4.20
2022-09-07T10:07:46.511Z,5.90
2022-09-07T10:08:46.502Z,4.90
2022-09-07T10:09:46.509Z,4.80
2022-09-07T10:10:46.481Z,4.60
2022-09-07T10:12:48.458Z,7.20
2022-09-07T10:13:46.845Z,5.80
2022-09-07T10:14:46.463Z,4.50
2022-09-07T10:15:46.464Z,7.70
2022-09-07T10:16:46.426Z,5.60
2022-09-07T10:17:46.430Z,5.00
2022-09-07T10:18:46.402Z,4.40
2022-09-07T10:20:12.304Z,4.90
2022-09-07T10:20:46.383Z,5.80
2022-09-07T10:21:46.390Z,6.80
2022-09-07T10:22:50.886Z,5.80
2022-09-07T10:23:48.351Z,7.10
2022-09-07T10:24:46.365Z,5.70
2022-09-07T10:25:46.340Z,8.20
2022-09-07T10:26:46.329Z,7.00
2022-09-07T10:27:46.313Z,9.40
2022-09-07T10:29:48.312Z,6.00
2022-09-07T10:30:46.329Z,8.20
2022-09-07T10:31:46.279Z,9.30
2022-09-07T10:32:46.268Z,6.40
2022-09-07T10:34:25.649Z,8.10
2022-09-07T10:34:48.280Z,9.20
2022-09-07T10:35:46.240Z,5.30
2022-09-07T10:36:46.229Z,7.00
2022-09-07T10:37:46.210Z,4.70
2022-09-07T10:38:46.207Z,6.50
2022-09-07T10:39:46.248Z,4.50
2022-09-07T10:40:46.200Z,7.10
2022-09-07T10:41:46.174Z,7.20
2022-09-07T10:43:20.724Z,7.40
2022-09-07T10:43:48.160Z,4.70
2022-09-07T10:44:46.161Z,7.70
2022-09-07T10:45:46.139Z,6.40
2022-09-07T10:47:01.431Z,4.60
2022-09-07T10:47:48.126Z,5.30
2022-09-07T10:48:46.156Z,5.40
2022-09-07T10:50:48.082Z,4.70
2022-09-07T10:51:46.071Z,9.30
2022-09-07T10:52:46.069Z,5.40
2022-09-07T10:53:46.584Z,7.50
2022-09-07T10:54:46.059Z,7.20
2022-09-07T10:55:46.038Z,6.30
2022-09-07T10:56:46.033Z,8.70
2022-09-07T10:57:49.057Z,6.40
2022-09-07T10:59:02.245Z,6.80
2022-09-07T11:00:47.991Z,6.80
2022-09-07T11:01:45.999Z,6.60
2022-09-07T11:03:24.932Z,6.40
2022-09-07T11:03:48.015Z,5.80
2022-09-07T11:04:45.962Z,6.20
2022-09-07T11:05:45.948Z,5.60
2022-09-07T11:06:45.938Z,5.50
2022-09-07T11:07:45.937Z,7.40
2022-09-07T11:09:47.951Z,12.50
2022-09-07T11:10:46.902Z,5.40
2022-09-07T11:12:01.935Z,8.00
2022-09-07T11:12:47.889Z,5.50
2022-09-07T11:14:09.338Z,7.50
2022-09-07T11:14:47.883Z,5.90
2022-09-07T11:15:45.886Z,5.90
2022-09-07T11:16:53.148Z,6.40
2022-09-07T11:17:52.549Z,5.50
2022-09-07T11:18:46.835Z,8.70
2022-09-07T11:19:45.843Z,6.20
2022-09-07T11:20:45.817Z,8.60
2022-09-07T11:22:01.041Z,7.50
2022-09-07T11:22:47.792Z,4.80
2022-09-07T11:23:45.786Z,5.10
2022-09-07T11:24:46.108Z,5.50
2022-09-07T11:25:46.597Z,5.30
2022-09-07T11:26:45.755Z,5.20
2022-09-07T11:27:45.742Z,6.30
2022-09-07T11:28:45.946Z,6.30
2022-09-07T11:29:45.736Z,6.90
2022-09-07T11:30:45.786Z,5.50
2022-09-07T11:31:45.702Z,7.40
2022-09-07T11:32:45.700Z,6.10
2022-09-07T11:34:23.829Z,8.60
2022-09-07T11:34:47.689Z,5.80
2022-09-07T11:35:45.665Z,6.40
2022-09-07T11:36:45.657Z,7.40
2022-09-07T11:37:45.649Z,8.00
2022-09-07T11:38:45.640Z,6.10
2022-09-07T11:39:45.711Z,4.10
2022-09-07T11:40:45.615Z,4.70
2022-09-07T11:41:45.605Z,6.00
2022-09-07T11:42:45.597Z,4.50
2022-09-07T11:43:45.610Z,6.90
2022-09-07T11:44:45.602Z,6.40
2022-09-07T11:45:45.565Z,6.00
2022-09-07T11:46:45.657Z,3.60
2022-09-07T11:47:45.557Z,8.80
2022-09-07T11:48:45.542Z,6.00
2022-09-07T11:49:51.471Z,6.10
2022-09-07T11:50:46.523Z,6.50
2022-09-07T11:51:45.523Z,8.30
2022-09-07T11:52:45.508Z,6.70
2022-09-07T11:53:45.497Z,7.00
2022-09-07T11:54:45.495Z,6.80
2022-09-07T11:55:45.470Z,5.80
2022-09-07T11:56:45.967Z,5.10
2022-09-07T11:57:46.455Z,7.60
2022-09-07T11:58:45.443Z,5.20
2022-09-07T11:59:45.446Z,7.20
2022-09-07T12:00:46.426Z,7.20
2022-09-07T12:01:45.418Z,3.90
2022-09-07T12:02:58.768Z,5.50
2022-09-07T12:03:47.512Z,3.30
2022-09-07T12:04:45.439Z,6.00
2022-09-07T12:05:45.381Z,6.30
2022-09-07T12:06:45.370Z,5.20
2022-09-07T12:07:45.361Z,6.90
2022-09-07T12:08:45.355Z,5.20
2022-09-07T12:09:45.359Z,4.00
2022-09-07T12:10:45.331Z,5.90
2022-09-07T12:11:45.319Z,5.40
2022-09-07T12:12:45.311Z,5.80
2022-09-07T12:13:45.300Z,7.40
2022-09-07T12:14:45.306Z,6.10
2022-09-07T12:15:45.295Z,4.50
2022-09-07T12:16:45.266Z,6.50
2022-09-07T12:17:45.260Z,5.20
2022-09-07T12:18:45.248Z,6.00
2022-09-07T12:19:45.253Z,3.70
2022-09-07T12:20:45.228Z,3.00
2022-09-07T12:21:45.218Z,4.00
2022-09-07T12:22:45.206Z,5.10
2022-09-07T12:23:45.200Z,8.30
2022-09-07T12:24:45.213Z,3.90
2022-09-07T12:25:45.179Z,6.30
2022-09-07T12:26:45.167Z,5.50
2022-09-07T12:27:45.158Z,4.60
2022-09-07T12:28:45.148Z,5.90
2022-09-07T12:29:45.587Z,5.80
2022-09-07T12:30:45.139Z,5.10
2022-09-07T12:31:57.670Z,3.40
2022-09-07T12:32:55.868Z,3.40
2022-09-07T12:33:47.104Z,5.20
2022-09-07T12:34:45.109Z,5.30
2022-09-07T12:35:45.084Z,3.50
2022-09-07T12:36:45.067Z,4.40
2022-09-07T12:37:45.057Z,7.10
2022-09-07T12:38:45.049Z,6.70
2022-09-07T12:39:45.098Z,7.90
2022-09-07T12:40:45.030Z,3.60
2022-09-07T12:41:47.370Z,5.00
2022-09-07T12:42:45.009Z,5.50
2022-09-07T12:43:45.008Z,5.50
2022-09-07T12:44:45.013Z,4.70
2022-09-07T12:45:44.984Z,4.70
2022-09-07T12:46:46.740Z,4.10
2022-09-07T12:47:44.963Z,5.40
2022-09-07T12:48:44.955Z,4.30
2022-09-07T12:49:44.962Z,4.10
2022-09-07T12:50:44.927Z,5.90
2022-09-07T12:52:06.852Z,4.90
2022-09-07T12:52:46.910Z,7.20
2022-09-07T12:53:44.903Z,6.80
2022-09-07T12:54:44.914Z,6.30
2022-09-07T12:56:47.080Z,7.90
2022-09-07T12:57:44.864Z,6.10
2022-09-07T12:58:44.876Z,4.60
2022-09-07T12:59:44.856Z,4.00
2022-09-07T13:00:44.842Z,4.40
2022-09-07T13:01:44.921Z,5.00
2022-09-07T13:02:44.888Z,5.20
2022-09-07T13:03:52.417Z,5.80
2022-09-07T13:04:46.827Z,5.00
2022-09-07T13:05:44.783Z,6.20
2022-09-07T13:07:46.767Z,5.40
2022-09-07T13:08:44.753Z,5.20
2022-09-07T13:09:44.759Z,4.40
2022-09-07T13:10:44.733Z,6.00
2022-09-07T13:11:45.620Z,4.40
2022-09-07T13:13:00.120Z,6.00
2022-09-07T13:14:04.440Z,5.70
2022-09-07T13:14:46.719Z,4.50
2022-09-07T13:15:44.735Z,5.80
2022-09-07T13:17:46.662Z,3.70
2022-09-07T13:18:44.651Z,5.60
2022-09-07T13:19:44.683Z,4.10
2022-09-07T13:20:44.641Z,3.90
2022-09-07T13:21:44.641Z,4.20
2022-09-07T13:22:44.611Z,5.20
2022-09-07T13:23:45.703Z,6.30
2022-09-07T13:24:46.441Z,5.70
2022-09-07T13:25:45.590Z,3.50
2022-09-07T13:26:48.143Z,3.30
2022-09-07T13:27:45.573Z,3.20
2022-09-07T13:28:44.567Z,6.10
2022-09-07T13:29:44.571Z,3.50
2022-09-07T13:30:44.611Z,7.20
2022-09-07T13:31:45.331Z,5.00
2022-09-07T13:33:46.515Z,3.60
2022-09-07T13:34:44.543Z,4.30
2022-09-07T13:35:44.500Z,3.30